Time;durP1;ratioP1;P1;durP2;ratioP2;P2;SDS_P1;SDS_P2;PMS_P1;PMS_P2;Temp;Humidity;BMP_temperature;BMP_pressure;BME280_temperature;BME280_humidity;BME280_pressure;Samples;Min_cycle;Max_cycle;Signal;HPM_P1;HPM_P2
2021/12/04 00:02:20;;;;;;;2.80;1.50;;;5.30;99.90;;;;;;5030227;28;20476;-76
2021/12/04 00:04:49;;;;;;;3.53;1.60;;;5.30;99.90;;;;;;5030085;28;20954;-76
2021/12/04 00:07:15;;;;;;;3.13;1.40;;;5.30;99.90;;;;;;5030121;28;20458;-76
2021/12/04 00:09:45;;;;;;;2.83;1.63;;;5.20;99.90;;;;;;5029943;28;20970;-76
2021/12/04 00:12:11;;;;;;;2.60;1.43;;;5.30;99.90;;;;;;5030021;28;20964;-76
2021/12/04 00:14:37;;;;;;;3.13;1.80;;;5.30;99.90;;;;;;5029942;28;20411;-76
2021/12/04 00:17:04;;;;;;;3.83;1.70;;;5.30;99.90;;;;;;5030036;28;20431;-76
2021/12/04 00:19:31;;;;;;;2.80;1.40;;;5.30;99.90;;;;;;5030274;28;21013;-76
2021/12/04 00:21:57;;;;;;;4.87;1.93;;;5.30;99.90;;;;;;5030033;28;20534;-76
2021/12/04 00:24:24;;;;;;;2.70;1.40;;;5.40;99.90;;;;;;5029924;28;20428;-76
2021/12/04 00:26:51;;;;;;;2.83;1.43;;;5.40;99.90;;;;;;5029902;28;20462;-76
2021/12/04 00:29:18;;;;;;;2.97;1.20;;;5.40;99.90;;;;;;5029784;28;20901;-76
2021/12/04 00:31:48;;;;;;;2.50;1.43;;;5.50;99.90;;;;;;5029711;28;20478;-77
2021/12/04 00:34:14;;;;;;;6.53;1.67;;;5.50;99.90;;;;;;5029975;28;20413;-76
2021/12/04 00:50:11;;;;;;;2.77;1.40;;;5.60;99.90;;;;;;5024223;28;20446;-77
2021/12/04 00:52:37;;;;;;;3.40;1.30;;;5.60;99.90;;;;;;5020660;28;20437;-77
2021/12/04 00:55:05;;;;;;;3.47;1.40;;;5.60;99.90;;;;;;5033136;28;20480;-76
2021/12/04 00:57:31;;;;;;;2.93;1.20;;;5.60;99.90;;;;;;5032922;28;20513;-76
2021/12/04 00:59:58;;;;;;;2.60;1.20;;;5.70;99.90;;;;;;5032913;28;20980;-77
2021/12/04 01:02:24;;;;;;;3.00;1.17;;;5.70;99.90;;;;;;5032728;28;20870;-76
2021/12/04 01:04:50;;;;;;;3.70;1.40;;;5.70;99.90;;;;;;5033057;28;20913;-76
2021/12/04 01:07:17;;;;;;;2.70;1.27;;;5.70;99.90;;;;;;5032713;28;20554;-76
2021/12/04 01:09:44;;;;;;;2.73;1.17;;;5.80;99.90;;;;;;5032836;28;20464;-77
2021/12/04 01:12:10;;;;;;;2.37;1.00;;;5.80;99.90;;;;;;5032688;28;20533;-76
2021/12/04 01:14:36;;;;;;;3.03;1.60;;;5.90;99.90;;;;;;5032883;28;20406;-77
2021/12/04 01:17:03;;;;;;;2.80;1.60;;;5.90;99.90;;;;;;5032666;28;20426;-77
2021/12/04 01:19:30;;;;;;;3.13;1.40;;;5.90;99.90;;;;;;5032456;28;20512;-76
2021/12/04 01:21:56;;;;;;;2.67;1.40;;;5.80;99.90;;;;;;5032411;28;20940;-77
2021/12/04 01:24:23;;;;;;;2.60;1.40;;;5.80;99.90;;;;;;5032652;28;20431;-77
2021/12/04 01:26:49;;;;;;;3.03;1.70;;;5.80;99.90;;;;;;5032417;28;20524;-77
2021/12/04 01:29:16;;;;;;;2.77;1.60;;;5.80;99.90;;;;;;5032431;28;20419;-76
2021/12/04 01:31:43;;;;;;;2.70;1.33;;;5.80;99.90;;;;;;5032418;28;20463;-77
2021/12/04 01:34:09;;;;;;;5.90;1.93;;;5.80;99.90;;;;;;5033072;28;20429;-77
2021/12/04 01:36:35;;;;;;;4.03;1.93;;;5.80;99.90;;;;;;5032397;28;20427;-76
2021/12/04 01:39:02;;;;;;;2.60;1.50;;;5.80;99.90;;;;;;5032145;28;20561;-76
2021/12/04 01:41:28;;;;;;;2.90;1.50;;;5.80;99.90;;;;;;5032206;28;20832;-76
2021/12/04 01:43:57;;;;;;;4.10;1.63;;;5.80;99.90;;;;;;5032154;28;20426;-77
2021/12/04 01:46:23;;;;;;;3.20;1.73;;;5.80;99.90;;;;;;5032214;28;20304;-77
2021/12/04 01:48:49;;;;;;;3.07;2.23;;;5.80;99.90;;;;;;5030888;28;20451;-76
2021/12/04 01:51:15;;;;;;;3.20;1.90;;;5.80;99.90;;;;;;5031881;28;20779;-76
2021/12/04 01:53:40;;;;;;;3.60;1.90;;;5.80;99.90;;;;;;5032016;28;20187;-76
2021/12/04 01:56:06;;;;;;;3.40;1.80;;;5.80;99.90;;;;;;5032030;28;20749;-76
2021/12/04 01:58:32;;;;;;;2.90;1.80;;;5.80;99.90;;;;;;5031892;28;20184;-76
2021/12/04 02:00:58;;;;;;;3.07;1.70;;;5.80;99.90;;;;;;5031703;28;20237;-77
2021/12/04 02:03:24;;;;;;;3.70;2.00;;;5.80;99.90;;;;;;5031629;28;20948;-77
2021/12/04 02:05:50;;;;;;;3.60;2.20;;;5.80;99.90;;;;;;5031720;28;20182;-77
2021/12/04 02:08:20;;;;;;;3.33;1.90;;;5.70;99.90;;;;;;5031400;28;20474;-77
2021/12/04 02:10:48;;;;;;;3.30;1.83;;;5.70;99.90;;;;;;5031471;28;20436;-77
2021/12/04 02:13:15;;;;;;;4.77;2.30;;;5.70;99.90;;;;;;5031523;28;20818;-77
2021/12/04 02:15:42;;;;;;;3.20;1.93;;;5.60;99.90;;;;;;5031759;28;20414;-77
2021/12/04 02:18:08;;;;;;;3.93;2.50;;;5.70;99.90;;;;;;5031488;28;20428;-77
2021/12/04 02:20:35;;;;;;;3.80;2.20;;;5.60;99.90;;;;;;5031283;28;20437;-77
2021/12/04 02:23:03;;;;;;;3.50;2.23;;;5.60;99.90;;;;;;5031352;28;20442;-76
2021/12/04 02:25:30;;;;;;;5.40;2.27;;;5.60;99.90;;;;;;5031511;28;20419;-76
2021/12/04 02:27:56;;;;;;;3.30;2.20;;;5.50;99.90;;;;;;5031381;28;20465;-76
2021/12/04 02:30:27;;;;;;;3.13;2.00;;;5.50;99.90;;;;;;5031121;28;20425;-76
2021/12/04 02:32:54;;;;;;;4.03;2.07;;;5.50;99.90;;;;;;5031120;28;20473;-76
2021/12/04 02:35:22;;;;;;;9.60;2.30;;;5.30;99.90;;;;;;5031361;28;20907;-76
2021/12/04 02:37:48;;;;;;;4.17;2.90;;;5.30;99.90;;;;;;5031394;28;20445;-75
2021/12/04 02:40:18;;;;;;;3.20;1.90;;;5.30;99.90;;;;;;5026673;28;20465;-76
2021/12/04 02:42:45;;;;;;;2.83;1.80;;;5.30;99.90;;;;;;5029227;28;20456;-76
2021/12/04 02:45:12;;;;;;;3.87;2.00;;;5.30;99.90;;;;;;5030901;28;20424;-76
2021/12/04 02:47:38;;;;;;;3.90;2.40;;;5.40;99.90;;;;;;5030918;28;20975;-76
2021/12/04 02:50:08;;;;;;;3.50;2.07;;;5.40;99.90;;;;;;5030607;28;20457;-76
2021/12/04 02:52:34;;;;;;;3.43;2.00;;;5.40;99.90;;;;;;5030929;28;20445;-76
2021/12/04 02:55:01;;;;;;;3.73;2.33;;;5.40;99.90;;;;;;5030787;28;20475;-76
2021/12/04 02:57:27;;;;;;;2.97;2.13;;;5.30;99.90;;;;;;5030894;28;20429;-76
2021/12/04 02:59:54;;;;;;;4.10;2.33;;;5.30;99.90;;;;;;5030165;28;20483;-76
2021/12/04 03:02:22;;;;;;;3.90;2.53;;;5.30;99.90;;;;;;5030813;28;20452;-76
2021/12/04 03:04:54;;;;;;;3.27;2.13;;;5.30;99.90;;;;;;5030516;28;20494;-76
2021/12/04 03:07:20;;;;;;;4.10;2.23;;;5.20;99.90;;;;;;5030695;28;20465;-76
2021/12/04 03:09:47;;;;;;;3.23;2.10;;;5.20;99.90;;;;;;5030245;28;20429;-76
2021/12/04 03:12:14;;;;;;;3.50;2.30;;;5.20;99.90;;;;;;5030641;28;20439;-76
2021/12/04 03:14:40;;;;;;;3.80;2.20;;;5.30;99.90;;;;;;5030606;28;20429;-76
2021/12/04 03:17:07;;;;;;;3.20;2.27;;;5.30;99.90;;;;;;5030718;28;20432;-76
2021/12/04 03:19:34;;;;;;;3.30;2.10;;;5.40;99.90;;;;;;5030278;28;20454;-76
2021/12/04 03:22:02;;;;;;;5.87;2.77;;;5.40;99.90;;;;;;5030841;28;20983;-76
2021/12/04 03:24:29;;;;;;;3.80;2.60;;;5.50;99.90;;;;;;5030444;28;20839;-76
2021/12/04 03:26:56;;;;;;;3.90;2.33;;;5.50;99.90;;;;;;5030466;28;20473;-76
2021/12/04 03:29:25;;;;;;;5.03;2.80;;;5.50;99.90;;;;;;5030202;28;20936;-76
2021/12/04 03:42:29;;;;;;;4.40;3.20;;;5.40;99.90;;;;;;5031703;28;20887;-76
2021/12/04 03:44:55;;;;;;;4.40;2.97;;;5.30;99.90;;;;;;5030247;28;20516;-76
2021/12/04 03:47:22;;;;;;;6.33;3.87;;;5.30;99.90;;;;;;5030404;28;20477;-75
2021/12/04 03:49:49;;;;;;;4.37;2.70;;;5.20;99.90;;;;;;5029951;28;20416;-76
2021/12/04 03:52:15;;;;;;;6.20;3.50;;;5.20;99.90;;;;;;5030285;28;20445;-76
2021/12/04 03:54:41;;;;;;;4.57;3.77;;;5.10;99.90;;;;;;5030103;28;20419;-75
2021/12/04 03:57:08;;;;;;;6.00;3.50;;;5.10;99.90;;;;;;5030356;28;20480;-76
2021/12/04 03:59:36;;;;;;;5.63;3.53;;;5.00;99.90;;;;;;5029937;28;20452;-76
2021/12/04 04:02:05;;;;;;;6.03;3.30;;;5.10;99.90;;;;;;5030157;28;20449;-76
2021/12/04 04:04:31;;;;;;;6.03;4.27;;;5.10;99.90;;;;;;5030237;28;20424;-76
2021/12/04 04:06:59;;;;;;;5.73;3.43;;;5.10;99.90;;;;;;5030004;28;20477;-76
2021/12/04 04:09:25;;;;;;;7.23;4.23;;;5.10;99.90;;;;;;5029891;28;20426;-76
2021/12/04 04:11:51;;;;;;;5.97;3.37;;;5.10;99.90;;;;;;5030862;28;20448;-76
2021/12/04 04:14:17;;;;;;;6.37;3.87;;;5.10;99.90;;;;;;5033969;28;20792;-76
2021/12/04 04:16:43;;;;;;;4.87;3.23;;;5.10;99.90;;;;;;5033736;28;20433;-76
2021/12/04 04:19:10;;;;;;;7.03;4.10;;;5.20;99.90;;;;;;5033590;28;20716;-76
2021/12/04 04:21:41;;;;;;;4.73;3.47;;;5.20;99.90;;;;;;5033757;28;20274;-76
2021/12/04 04:24:09;;;;;;;4.87;3.67;;;5.20;99.90;;;;;;5033872;28;20421;-76
2021/12/04 04:26:36;;;;;;;5.07;3.60;;;5.20;99.90;;;;;;5033533;28;20469;-76
2021/12/04 04:29:02;;;;;;;6.27;4.00;;;5.20;99.90;;;;;;5033607;28;20952;-76
2021/12/04 04:31:29;;;;;;;5.90;3.60;;;5.30;99.90;;;;;;5033279;28;20442;-76
2021/12/04 04:34:01;;;;;;;5.50;4.00;;;5.30;99.90;;;;;;5033605;28;20433;-76
2021/12/04 05:11:44;;;;;;;5.20;3.47;;;5.10;99.90;;;;;;5034459;28;20488;-76
2021/12/04 05:14:19;;;;;;;4.80;3.90;;;5.10;99.90;;;;;;5032725;28;20440;-76
2021/12/04 05:17:08;;;;;;;5.33;3.63;;;5.10;99.90;;;;;;5034169;28;20965;-76
2021/12/04 05:19:52;;;;;;;4.73;3.17;;;5.10;99.90;;;;;;5033153;28;20856;-76
2021/12/04 05:22:19;;;;;;;5.20;3.70;;;5.20;99.90;;;;;;5032432;28;20461;-76
2021/12/04 05:24:45;;;;;;;4.87;2.93;;;5.20;99.90;;;;;;5032498;28;20478;-76
2021/12/04 05:27:10;;;;;;;6.77;3.23;;;5.20;99.90;;;;;;5032557;28;20907;-76
2021/12/04 05:29:37;;;;;;;4.43;3.30;;;5.20;99.90;;;;;;5032090;28;20194;-76
2021/12/04 05:32:05;;;;;;;3.83;2.90;;;5.30;99.90;;;;;;5032523;28;20234;-76
2021/12/04 05:34:31;;;;;;;5.03;2.90;;;5.30;99.90;;;;;;5032394;28;20428;-76
2021/12/04 05:36:58;;;;;;;3.70;2.50;;;5.30;99.90;;;;;;5032384;28;20421;-76
2021/12/04 05:39:23;;;;;;;4.33;2.90;;;5.40;99.90;;;;;;5032007;28;20450;-76
2021/12/04 05:41:50;;;;;;;4.57;2.63;;;5.40;99.90;;;;;;5032036;28;20830;-76
2021/12/04 05:44:19;;;;;;;5.83;3.33;;;5.40;99.90;;;;;;5032206;28;20191;-76
2021/12/04 05:46:53;;;;;;;4.57;2.80;;;5.40;99.90;;;;;;5032008;28;20478;-76
2021/12/04 05:49:24;;;;;;;4.30;2.80;;;5.40;99.90;;;;;;5032044;28;20448;-76
2021/12/04 05:52:08;;;;;;;6.73;4.27;;;5.40;99.90;;;;;;5031942;28;20457;-76
2021/12/04 05:57:06;;;;;;;4.37;3.30;;;5.30;99.90;;;;;;5033210;28;20948;-76
2021/12/04 05:59:32;;;;;;;4.33;3.00;;;5.40;99.90;;;;;;5031781;28;20463;-76
2021/12/04 06:01:59;;;;;;;6.10;3.27;;;5.40;99.90;;;;;;5031730;28;20448;-76
2021/12/04 06:04:25;;;;;;;3.63;2.90;;;5.40;99.90;;;;;;5031913;28;20464;-76
2021/12/04 06:06:51;;;;;;;5.80;3.10;;;5.40;99.90;;;;;;5031545;28;20527;-76
2021/12/04 06:09:17;;;;;;;4.97;3.23;;;5.40;99.90;;;;;;5031539;28;20419;-76
2021/12/04 06:11:43;;;;;;;4.57;3.10;;;5.40;99.90;;;;;;5031548;28;20451;-76
2021/12/04 06:14:08;;;;;;;5.13;3.30;;;5.40;99.90;;;;;;5031733;28;20186;-76
2021/12/04 06:16:34;;;;;;;5.03;2.87;;;5.40;99.90;;;;;;5031776;28;20488;-76
2021/12/04 06:24:31;;;;;;;3.47;2.60;;;5.50;99.90;;;;;;5033073;28;20446;-76
2021/12/04 06:26:56;;;;;;;4.30;2.93;;;5.50;99.90;;;;;;5031572;28;20470;-76
2021/12/04 06:29:24;;;;;;;3.60;2.40;;;5.50;99.90;;;;;;5031080;28;20234;-76
2021/12/04 06:31:49;;;;;;;5.30;3.50;;;5.60;99.90;;;;;;5031359;28;20255;-76
2021/12/04 06:34:15;;;;;;;3.83;2.63;;;5.60;99.90;;;;;;5030764;28;20517;-76
2021/12/04 06:36:41;;;;;;;5.97;3.13;;;5.70;99.90;;;;;;5029580;28;20279;-76
2021/12/04 06:39:09;;;;;;;6.07;3.20;;;5.70;99.90;;;;;;5030838;28;20196;-76
2021/12/04 06:41:35;;;;;;;6.33;3.87;;;5.70;99.90;;;;;;5035405;22;20374;-85
2021/12/04 06:44:00;;;;;;;5.07;2.87;;;5.60;99.90;;;;;;5013427;28;20518;-84
2021/12/04 06:46:27;;;;;;;5.80;3.57;;;5.70;99.90;;;;;;5013725;28;20690;-84
2021/12/04 06:51:28;;;;;;;5.17;2.70;;;5.70;99.90;;;;;;5014393;28;20507;-84
2021/12/04 06:56:41;;;;;;;4.57;2.83;;;5.70;99.90;;;;;;5015136;28;20403;-85
2021/12/04 06:59:10;;;;;;;4.60;3.10;;;5.70;99.90;;;;;;5012834;28;20434;-86
2021/12/04 07:01:38;;;;;;;5.53;3.30;;;5.70;99.90;;;;;;5014221;28;20500;-84
2021/12/04 07:04:05;;;;;;;4.70;3.23;;;5.70;99.90;;;;;;5013039;28;20423;-85
2021/12/04 07:06:31;;;;;;;4.77;3.00;;;5.70;99.90;;;;;;5012760;28;20461;-84
2021/12/04 07:08:58;;;;;;;5.43;3.93;;;5.60;99.90;;;;;;5014134;28;20485;-85
2021/12/04 07:11:24;;;;;;;5.23;3.30;;;5.70;99.90;;;;;;5013053;28;20957;-85
2021/12/04 07:13:50;;;;;;;5.57;3.40;;;5.60;99.90;;;;;;5012889;28;20418;-85
2021/12/04 07:16:18;;;;;;;6.77;3.97;;;5.60;99.90;;;;;;5013871;28;20411;-85
2021/12/04 07:18:44;;;;;;;6.83;4.20;;;5.60;99.90;;;;;;5012781;28;20182;-85
2021/12/04 07:21:10;;;;;;;5.60;3.77;;;5.60;99.90;;;;;;5012274;28;20437;-85
2021/12/04 07:23:36;;;;;;;5.07;3.47;;;5.60;99.90;;;;;;5012929;28;20179;-85
2021/12/04 07:26:02;;;;;;;8.23;3.60;;;5.60;99.90;;;;;;5012547;28;20436;-86
2021/12/04 07:28:28;;;;;;;5.40;3.13;;;5.60;99.90;;;;;;5013794;28;20419;-84
2021/12/04 07:30:53;;;;;;;5.00;3.20;;;5.60;99.90;;;;;;5012345;28;20466;-83
2021/12/04 07:33:19;;;;;;;4.80;3.20;;;5.60;99.90;;;;;;5012570;28;20187;-85
2021/12/04 07:35:45;;;;;;;5.87;3.63;;;5.50;99.90;;;;;;5012399;28;20217;-84
2021/12/04 07:38:10;;;;;;;5.37;3.50;;;5.50;99.90;;;;;;5012984;28;20198;-83
2021/12/04 07:40:38;;;;;;;6.00;3.70;;;5.50;99.90;;;;;;5012101;28;20225;-84
2021/12/04 07:43:04;;;;;;;5.50;3.23;;;5.50;99.90;;;;;;5011825;28;20189;-83
2021/12/04 07:45:29;;;;;;;5.00;3.20;;;5.40;99.90;;;;;;5012744;28;20448;-84
2021/12/04 07:47:55;;;;;;;6.80;4.10;;;5.40;99.90;;;;;;5016589;28;20567;-84
2021/12/04 07:50:22;;;;;;;5.20;3.40;;;5.50;99.90;;;;;;5016348;28;20297;-84
2021/12/04 07:52:49;;;;;;;5.77;3.50;;;5.40;99.90;;;;;;5016888;28;20229;-84
2021/12/04 07:55:15;;;;;;;5.20;3.17;;;5.50;99.90;;;;;;5016598;28;20433;-84
2021/12/04 07:57:40;;;;;;;7.20;4.40;;;5.50;99.90;;;;;;5016443;28;20461;-83
2021/12/04 08:00:10;;;;;;;5.03;3.60;;;5.50;99.90;;;;;;5016026;28;20452;-84
2021/12/04 08:02:35;;;;;;;6.90;4.30;;;5.50;99.90;;;;;;5016420;28;20197;-84
2021/12/04 08:05:01;;;;;;;5.40;3.73;;;5.50;99.90;;;;;;5016213;28;20427;-84
2021/12/04 08:07:27;;;;;;;6.47;3.60;;;5.60;99.90;;;;;;5016339;28;20211;-85
2021/12/04 08:09:52;;;;;;;5.60;4.10;;;5.70;99.90;;;;;;5017418;28;20183;-84
2021/12/04 08:12:18;;;;;;;5.53;3.40;;;5.70;99.90;;;;;;5016282;28;20184;-84
2021/12/04 08:14:43;;;;;;;6.20;3.60;;;5.70;99.90;;;;;;5017597;28;20180;-83
2021/12/04 08:17:09;;;;;;;6.93;4.17;;;5.70;99.90;;;;;;5016124;28;20211;-84
2021/12/04 08:19:34;;;;;;;6.27;4.07;;;5.80;99.90;;;;;;5015213;28;20195;-84
2021/12/04 08:22:00;;;;;;;6.60;3.93;;;5.80;99.90;;;;;;5015023;28;20207;-86
2021/12/04 08:24:26;;;;;;;5.60;3.80;;;5.90;99.90;;;;;;5015504;28;20195;-84
2021/12/04 08:26:52;;;;;;;5.43;3.70;;;5.90;99.90;;;;;;5015245;28;20213;-84
2021/12/04 08:29:18;;;;;;;5.60;4.00;;;5.90;99.90;;;;;;5015059;28;21054;-85
2021/12/04 08:31:46;;;;;;;6.97;3.67;;;5.90;99.90;;;;;;5014972;28;20239;-83
2021/12/04 08:34:12;;;;;;;6.00;3.67;;;6.00;99.90;;;;;;5015219;28;20189;-85
2021/12/04 08:36:38;;;;;;;6.07;4.87;;;6.00;99.90;;;;;;5015605;28;20916;-86
2021/12/04 08:39:05;;;;;;;6.70;4.30;;;6.10;99.90;;;;;;5014764;28;20209;-84
2021/12/04 08:41:31;;;;;;;6.43;4.77;;;6.10;99.90;;;;;;5014910;28;20254;-83
2021/12/04 08:43:57;;;;;;;6.20;4.40;;;6.10;99.90;;;;;;5015124;28;20840;-83
2021/12/04 08:46:23;;;;;;;5.40;4.00;;;6.10;99.90;;;;;;5014907;28;20426;-85
2021/12/04 08:48:54;;;;;;;4.93;3.40;;;6.10;99.90;;;;;;5016214;28;20180;-85
2021/12/04 08:51:22;;;;;;;6.23;3.77;;;6.10;99.90;;;;;;5015900;28;20450;-85
2021/12/04 08:53:49;;;;;;;5.50;3.80;;;6.10;99.90;;;;;;5014849;28;20483;-85
2021/12/04 08:56:14;;;;;;;5.50;3.80;;;6.10;99.90;;;;;;5014812;28;20420;-85
2021/12/04 08:58:41;;;;;;;6.33;4.10;;;6.20;99.90;;;;;;5014349;28;20420;-85
2021/12/04 09:01:12;;;;;;;6.73;4.90;;;6.30;99.90;;;;;;5015419;28;20194;-84
2021/12/04 09:03:45;;;;;;;6.50;4.07;;;6.30;99.90;;;;;;5014714;28;20422;-86
2021/12/04 09:06:12;;;;;;;8.63;4.17;;;6.40;99.90;;;;;;5014492;28;20509;-85
2021/12/04 09:08:38;;;;;;;6.30;4.40;;;6.40;99.90;;;;;;5015730;28;20434;-85
2021/12/04 09:11:08;;;;;;;6.93;3.80;;;6.40;99.90;;;;;;5015138;28;20815;-84
2021/12/04 09:13:34;;;;;;;5.83;4.10;;;6.50;99.90;;;;;;5016845;28;20431;-85
2021/12/04 09:16:01;;;;;;;6.80;4.77;;;6.60;99.90;;;;;;5015579;28;20423;-86
2021/12/04 09:18:27;;;;;;;6.00;4.23;;;6.60;99.90;;;;;;5015535;28;20443;-85
2021/12/04 09:20:55;;;;;;;5.60;3.80;;;6.60;99.90;;;;;;5015020;28;20451;-84
2021/12/04 09:23:22;;;;;;;5.90;3.73;;;6.50;99.90;;;;;;5014833;28;20472;-84
2021/12/04 09:25:53;;;;;;;5.50;4.27;;;6.50;99.90;;;;;;5015381;28;20424;-83
2021/12/04 09:28:25;;;;;;;6.63;4.40;;;6.50;99.90;;;;;;5014733;28;20509;-83
2021/12/04 09:40:18;;;;;;;6.40;4.10;;;6.70;99.90;;;;;;5014812;28;20272;-83
2021/12/04 10:19:35;;;;;;;4.10;3.03;;;6.70;99.90;;;;;;5014577;28;20418;-84
2021/12/04 10:22:14;;;;;;;13.40;4.80;;;6.80;99.90;;;;;;5030067;28;20455;-83
2021/12/04 10:25:04;;;;;;;5.00;3.83;;;7.00;99.90;;;;;;5013198;28;20942;-82
2021/12/04 10:33:12;;;;;;;6.70;4.53;;;7.10;99.90;;;;;;5014814;28;20420;-83
2021/12/04 10:35:39;;;;;;;7.07;4.30;;;7.30;99.90;;;;;;5013259;28;20447;-84
2021/12/04 10:38:07;;;;;;;6.20;4.10;;;7.50;99.90;;;;;;5030891;28;20420;-84
2021/12/04 10:40:43;;;;;;;4.53;3.17;;;7.60;99.90;;;;;;5029195;28;20463;-83
2021/12/04 10:43:14;;;;;;;4.27;3.10;;;7.80;99.90;;;;;;5013204;28;20427;-84
2021/12/04 10:45:45;;;;;;;5.00;3.80;;;7.80;99.90;;;;;;5013175;28;20470;-83
2021/12/04 10:48:18;;;;;;;4.90;3.67;;;7.70;99.90;;;;;;5013112;28;20496;-84
2021/12/04 10:51:32;;;;;;;5.33;4.00;;;7.70;99.90;;;;;;5012587;28;20790;-84
2021/12/04 10:53:38;;;;;;;4.37;2.97;;;7.80;99.90;;;;;;5013736;28;20968;-83
2021/12/04 11:01:42;;;;;;;5.13;3.10;;;8.00;99.90;;;;;;5014943;28;20494;-83
2021/12/04 11:04:27;;;;;;;3.90;3.30;;;7.90;99.90;;;;;;5030417;28;20424;-83
2021/12/04 11:39:57;;;;;;;5.10;4.10;;;7.40;99.90;;;;;;5014352;28;20416;-84
2021/12/04 11:42:59;;;;;;;5.30;4.07;;;7.40;99.90;;;;;;5012719;28;20459;-84
2021/12/04 11:45:27;;;;;;;4.10;2.60;;;7.40;99.90;;;;;;5013683;28;20946;-85
2021/12/04 11:47:56;;;;;;;4.80;2.97;;;7.30;99.90;;;;;;5014502;28;20500;-84
2021/12/04 11:50:28;;;;;;;4.13;2.43;;;7.30;99.90;;;;;;5012577;28;20811;-84
2021/12/04 11:52:57;;;;;;;4.10;2.93;;;7.30;99.90;;;;;;5012332;28;20427;-84
2021/12/04 11:55:25;;;;;;;4.33;2.90;;;7.30;99.90;;;;;;5012231;28;20892;-84
2021/12/04 11:57:52;;;;;;;5.20;3.27;;;7.50;99.90;;;;;;5013854;28;20467;-84
2021/12/04 12:00:28;;;;;;;3.97;2.83;;;7.60;99.90;;;;;;5026037;28;20463;-81
2021/12/04 12:03:11;;;;;;;4.50;3.10;;;7.70;99.90;;;;;;5006532;28;20927;-83
2021/12/04 12:05:53;;;;;;;3.87;2.70;;;7.60;99.90;;;;;;5027591;28;21235;-82
2021/12/04 12:08:32;;;;;;;4.20;3.23;;;7.60;99.90;;;;;;5008520;28;20464;-83
2021/12/04 12:11:10;;;;;;;4.27;2.80;;;7.70;99.90;;;;;;4997029;28;20441;-83
2021/12/04 12:13:43;;;;;;;4.97;3.33;;;7.70;99.90;;;;;;5015691;28;20415;-82
2021/12/04 12:16:24;;;;;;;10.30;4.30;;;7.80;99.90;;;;;;5010418;28;20451;-83
2021/12/04 12:18:54;;;;;;;7.37;3.80;;;7.90;99.90;;;;;;5031576;28;20432;-83
2021/12/04 12:21:25;;;;;;;4.77;3.10;;;7.90;99.90;;;;;;5015627;28;20439;-83
2021/12/04 12:36:13;;;;;;;4.33;3.03;;;8.00;99.90;;;;;;5019154;28;20803;-82
2021/12/04 12:38:47;;;;;;;4.63;2.40;;;8.00;99.90;;;;;;5022310;28;20485;-83
2021/12/04 12:41:38;;;;;;;4.40;2.80;;;8.10;99.90;;;;;;4996742;28;21068;-83
2021/12/04 12:44:17;;;;;;;4.40;3.00;;;8.20;99.90;;;;;;4995280;28;20417;-82
2021/12/04 12:46:50;;;;;;;4.50;2.87;;;8.20;99.90;;;;;;4994523;28;20464;-84
2021/12/04 12:49:40;;;;;;;4.37;2.30;;;8.20;99.90;;;;;;4994029;28;20409;-83
2021/12/04 12:52:27;;;;;;;4.27;2.60;;;8.00;99.90;;;;;;4986240;28;20421;-82
2021/12/04 12:55:04;;;;;;;4.03;2.40;;;7.90;99.90;;;;;;4995661;28;20454;-83
2021/12/04 12:57:31;;;;;;;3.90;2.77;;;7.70;99.90;;;;;;5010832;28;20428;-83
2021/12/04 13:11:43;;;;;;;5.00;2.83;;;7.30;99.90;;;;;;5000362;28;20466;-83
2021/12/04 13:14:28;;;;;;;5.50;3.37;;;7.20;99.90;;;;;;5002981;28;20809;-83
2021/12/04 13:17:10;;;;;;;5.70;3.33;;;7.10;99.90;;;;;;5007649;28;20432;-82
2021/12/04 13:19:39;;;;;;;4.67;3.00;;;7.10;99.90;;;;;;5024298;28;20485;-83
2021/12/04 13:22:09;;;;;;;5.03;3.00;;;7.00;99.90;;;;;;5016931;28;20508;-81
2021/12/04 13:24:39;;;;;;;6.33;3.37;;;7.00;99.90;;;;;;5014815;28;20842;-83
2021/12/04 13:29:38;;;;;;;4.93;3.60;;;7.10;99.90;;;;;;5016837;28;20400;-82
2021/12/04 13:32:04;;;;;;;4.77;3.50;;;7.10;99.90;;;;;;5016668;28;20924;-82
2021/12/04 13:34:31;;;;;;;4.60;2.90;;;7.00;99.90;;;;;;5017328;28;20851;-83
2021/12/04 13:36:58;;;;;;;5.00;3.50;;;7.00;99.90;;;;;;5015228;28;20431;-82
2021/12/04 13:39:25;;;;;;;6.53;4.47;;;7.00;99.90;;;;;;5015397;28;20483;-82
2021/12/04 13:41:52;;;;;;;6.33;4.03;;;7.00;99.90;;;;;;5014998;28;20464;-82
2021/12/04 13:44:20;;;;;;;6.87;4.30;;;7.00;99.90;;;;;;5016602;28;20416;-81
2021/12/04 13:46:47;;;;;;;7.80;4.57;;;6.90;99.90;;;;;;5014812;28;20932;-82
2021/12/04 13:49:17;;;;;;;5.67;3.83;;;6.90;99.90;;;;;;5015500;28;20412;-82
2021/12/04 13:51:43;;;;;;;4.80;3.50;;;6.90;99.90;;;;;;5015795;28;20435;-84
2021/12/04 13:54:09;;;;;;;5.00;3.20;;;7.00;99.90;;;;;;5012732;28;20424;-83
2021/12/04 13:56:35;;;;;;;4.57;3.47;;;7.00;99.90;;;;;;5011795;28;20641;-84
2021/12/04 13:59:05;;;;;;;4.73;3.10;;;7.10;99.90;;;;;;5006404;28;20474;-82
2021/12/04 14:01:41;;;;;;;4.27;3.10;;;7.00;99.90;;;;;;5030692;28;20440;-83
2021/12/04 14:04:15;;;;;;;4.50;3.00;;;7.00;99.90;;;;;;5014699;28;20460;-84
2021/12/04 14:06:50;;;;;;;5.67;3.30;;;7.00;99.90;;;;;;5014211;28;20462;-84
2021/12/04 14:09:17;;;;;;;4.87;3.23;;;6.90;99.90;;;;;;5015462;28;20443;-84
2021/12/04 14:11:43;;;;;;;5.07;3.87;;;6.80;99.90;;;;;;5013872;28;20467;-83
2021/12/04 14:14:14;;;;;;;5.97;3.70;;;6.80;99.90;;;;;;5013994;28;20420;-82
2021/12/04 14:16:42;;;;;;;5.70;4.00;;;6.80;99.90;;;;;;5013639;28;20427;-83
2021/12/04 14:19:29;;;;;;;5.40;3.93;;;6.80;99.90;;;;;;5015375;28;20434;-82
2021/12/04 14:22:05;;;;;;;5.50;4.13;;;6.80;99.90;;;;;;5013952;28;20452;-83
2021/12/04 14:24:43;;;;;;;8.20;3.63;;;6.80;99.90;;;;;;5013984;28;20423;-83
2021/12/04 14:27:15;;;;;;;5.53;3.97;;;6.70;99.90;;;;;;5013594;28;20459;-82
2021/12/04 14:29:46;;;;;;;4.57;3.17;;;6.70;99.90;;;;;;5013994;28;20420;-83
2021/12/04 14:32:13;;;;;;;4.97;3.30;;;6.70;99.90;;;;;;5014808;28;20478;-83
2021/12/04 14:34:39;;;;;;;5.23;3.80;;;6.70;99.90;;;;;;5014024;28;20412;-82
2021/12/04 14:37:14;;;;;;;4.93;3.20;;;6.70;99.90;;;;;;5027950;28;20558;-82
2021/12/04 14:39:44;;;;;;;5.00;3.77;;;6.60;99.90;;;;;;5011193;28;20287;-83
2021/12/04 14:42:16;;;;;;;5.13;4.00;;;6.70;99.90;;;;;;5027080;28;20825;-82
2021/12/04 14:44:51;;;;;;;5.73;4.10;;;6.70;99.90;;;;;;5029505;28;20947;-83
2021/12/04 14:47:17;;;;;;;5.40;4.23;;;6.70;99.90;;;;;;5029472;28;20467;-81
2021/12/04 14:49:45;;;;;;;5.67;4.20;;;6.70;99.90;;;;;;5030347;28;20869;-83
2021/12/04 14:52:23;;;;;;;7.57;5.80;;;6.70;99.90;;;;;;5015676;28;20470;-82
2021/12/04 14:54:50;;;;;;;9.50;5.30;;;6.70;99.90;;;;;;5030126;28;20412;-82
2021/12/04 14:57:19;;;;;;;6.13;4.60;;;6.70;99.90;;;;;;5015139;28;20878;-82
2021/12/04 14:59:45;;;;;;;6.50;4.70;;;6.60;99.90;;;;;;5029904;28;20427;-83
2021/12/04 15:02:20;;;;;;;8.57;5.10;;;6.60;99.90;;;;;;5013079;28;20454;-82
2021/12/04 15:04:46;;;;;;;6.80;5.53;;;6.60;99.90;;;;;;5030078;28;21141;-83
2021/12/04 15:07:32;;;;;;;11.87;6.03;;;6.70;99.90;;;;;;5029656;28;20525;-82
2021/12/04 15:09:59;;;;;;;12.40;7.27;;;6.60;99.90;;;;;;5029596;28;20424;-82
2021/12/04 15:12:28;;;;;;;8.13;6.30;;;6.60;99.90;;;;;;5029560;28;20426;-81
2021/12/04 15:15:02;;;;;;;10.70;5.87;;;6.50;99.90;;;;;;5030145;28;20423;-84
2021/12/04 15:17:28;;;;;;;9.70;6.10;;;6.50;99.90;;;;;;5029976;28;20485;-81
2021/12/04 15:20:09;;;;;;;9.93;6.50;;;6.60;99.90;;;;;;5013051;28;20456;-81
2021/12/04 15:22:38;;;;;;;8.23;5.50;;;6.70;99.90;;;;;;5014161;28;20934;-82
2021/12/04 15:25:09;;;;;;;8.00;5.17;;;6.70;99.90;;;;;;5024831;28;20474;-81
2021/12/04 15:27:34;;;;;;;8.00;5.57;;;6.70;99.90;;;;;;5007108;28;20468;-82
2021/12/04 15:30:04;;;;;;;9.23;6.30;;;6.70;99.90;;;;;;5013787;28;20482;-82
2021/12/04 15:32:30;;;;;;;10.93;7.57;;;6.70;99.90;;;;;;5029330;28;20173;-82
2021/12/04 15:35:07;;;;;;;7.50;5.10;;;6.60;99.90;;;;;;5014162;28;20424;-83
2021/12/04 15:37:41;;;;;;;6.90;5.27;;;6.60;99.90;;;;;;5028318;28;20473;-82
2021/12/04 15:40:23;;;;;;;6.03;3.57;;;6.40;99.90;;;;;;5028537;28;20470;-82
2021/12/04 15:43:17;;;;;;;4.97;2.50;;;6.30;99.90;;;;;;5029190;28;20451;-82
2021/12/04 15:54:06;;;;;;;5.13;3.20;;;5.80;99.90;;;;;;5010654;28;20457;-82
2021/12/04 15:56:40;;;;;;;6.33;3.40;;;5.80;99.90;;;;;;5012536;28;20417;-82
2021/12/04 15:59:06;;;;;;;4.80;3.20;;;5.70;99.90;;;;;;5012373;28;20464;-82
2021/12/04 16:01:32;;;;;;;5.60;3.70;;;5.70;99.90;;;;;;5011761;28;20473;-82
2021/12/04 16:03:59;;;;;;;7.23;4.07;;;5.80;99.90;;;;;;5013458;28;20252;-83
2021/12/04 16:06:39;;;;;;;5.07;3.57;;;5.70;99.90;;;;;;5011958;28;20177;-83
2021/12/04 16:09:05;;;;;;;4.23;3.13;;;5.80;99.90;;;;;;5015305;28;20422;-82
2021/12/04 16:11:41;;;;;;;11.37;4.37;;;5.80;99.90;;;;;;5016402;28;20439;-81
2021/12/04 16:14:09;;;;;;;6.70;3.70;;;5.80;99.90;;;;;;5014909;28;20411;-82
2021/12/04 16:16:40;;;;;;;4.43;3.23;;;5.80;99.90;;;;;;5015914;28;20419;-82
2021/12/04 16:19:08;;;;;;;6.17;3.17;;;5.80;99.90;;;;;;5014587;28;20984;-83
2021/12/04 16:21:35;;;;;;;4.17;2.73;;;5.70;99.90;;;;;;5014210;28;20457;-82
2021/12/04 16:24:05;;;;;;;4.23;2.77;;;5.80;99.90;;;;;;5014052;28;20505;-82
2021/12/04 16:26:31;;;;;;;6.73;3.90;;;5.90;99.90;;;;;;5013783;28;20785;-82